North Canaan, Connecticut
Current Conditions -  °F | °C
As of 10:54 AM on Tuesday 21 Oct 2014 (Local Time) from KPSF Reporting Station
Light Rain Light Rain  
Wind Chill: 46°   Ceiling: 6000
Heat Index: 48°   Visibility: 9mi
Dew Point: 46°   Wind: 5mph
Humidity: 93%   Direction: 30°NNE
Pressure: 29.92"   Gusts: NA
Location:  42.0294°N, 73.3073°W
Report Text: KPSF 211454Z AUTO 03004KT 9SM -RA SCT049 OVC060 09/08 A2992 RMK AO2 RAE1359B46 SLP128 P0000 60004 T00890078 50004
Loading
Personal Weather Stations






























Interactive Weather Map
Tropical Storm Tracking
New forecast layout! Learn more

10-Day Weather Forecast

Advertisements
Track Severe Weather on mobile